sensor_id;sensor_type;location;lat;lon;timestamp;temperature;humidity
78461;SHT31;67755;51.986;5.696;2023-05-14T00:00:30;19.4;50.0
78461;SHT31;67755;51.986;5.696;2023-05-14T00:02:59;19.4;49.9
78461;SHT31;67755;51.986;5.696;2023-05-14T00:05:29;19.4;50.0
78461;SHT31;67755;51.986;5.696;2023-05-14T00:08:00;19.3;50.4
78461;SHT31;67755;51.986;5.696;2023-05-14T00:10:29;19.3;50.1
78461;SHT31;67755;51.986;5.696;2023-05-14T00:12:59;19.3;50.2
78461;SHT31;67755;51.986;5.696;2023-05-14T00:15:29;19.2;50.2
78461;SHT31;67755;51.986;5.696;2023-05-14T00:17:59;19.2;50.3
78461;SHT31;67755;51.986;5.696;2023-05-14T00:20:29;19.2;50.2
78461;SHT31;67755;51.986;5.696;2023-05-14T00:22:59;19.1;50.2
78461;SHT31;67755;51.986;5.696;2023-05-14T00:25:31;19.1;50.2
78461;SHT31;67755;51.986;5.696;2023-05-14T00:28:01;19.1;50.3
78461;SHT31;67755;51.986;5.696;2023-05-14T00:30:32;19.0;50.4
78461;SHT31;67755;51.986;5.696;2023-05-14T00:33:02;19.0;50.7
78461;SHT31;67755;51.986;5.696;2023-05-14T00:35:32;18.9;50.8
78461;SHT31;67755;51.986;5.696;2023-05-14T00:38:02;18.9;50.8
78461;SHT31;67755;51.986;5.696;2023-05-14T00:40:32;18.9;51.1
78461;SHT31;67755;51.986;5.696;2023-05-14T00:43:02;18.8;50.8
78461;SHT31;67755;51.986;5.696;2023-05-14T00:45:32;18.8;51.2
78461;SHT31;67755;51.986;5.696;2023-05-14T00:48:04;18.8;51.3
78461;SHT31;67755;51.986;5.696;2023-05-14T00:50:33;18.7;51.4
78461;SHT31;67755;51.986;5.696;2023-05-14T00:53:03;18.7;51.5
78461;SHT31;67755;51.986;5.696;2023-05-14T00:55:37;18.7;51.8
78461;SHT31;67755;51.986;5.696;2023-05-14T00:58:09;18.6;51.8
78461;SHT31;67755;51.986;5.696;2023-05-14T01:00:40;18.6;52.0
78461;SHT31;67755;51.986;5.696;2023-05-14T01:03:09;18.6;52.0
78461;SHT31;67755;51.986;5.696;2023-05-14T01:05:48;18.6;52.3
78461;SHT31;67755;51.986;5.696;2023-05-14T01:08:26;18.5;52.4
78461;SHT31;67755;51.986;5.696;2023-05-14T01:11:03;18.5;52.7
78461;SHT31;67755;51.986;5.696;2023-05-14T01:13:43;18.5;52.8
78461;SHT31;67755;51.986;5.696;2023-05-14T01:16:18;18.5;52.7
78461;SHT31;67755;51.986;5.696;2023-05-14T01:18:49;18.5;52.6
78461;SHT31;67755;51.986;5.696;2023-05-14T01:21:35;18.5;52.4
78461;SHT31;67755;51.986;5.696;2023-05-14T01:24:08;18.5;52.7
78461;SHT31;67755;51.986;5.696;2023-05-14T01:26:37;18.4;52.4
78461;SHT31;67755;51.986;5.696;2023-05-14T01:29:14;18.4;52.7
78461;SHT31;67755;51.986;5.696;2023-05-14T01:31:46;18.4;52.6
78461;SHT31;67755;51.986;5.696;2023-05-14T01:34:22;18.4;52.5
78461;SHT31;67755;51.986;5.696;2023-05-14T01:36:54;18.4;52.5
78461;SHT31;67755;51.986;5.696;2023-05-14T01:39:24;18.3;52.7
78461;SHT31;67755;51.986;5.696;2023-05-14T01:41:55;18.3;52.6
78461;SHT31;67755;51.986;5.696;2023-05-14T01:44:27;18.3;52.7
78461;SHT31;67755;51.986;5.696;2023-05-14T01:46:57;18.3;52.7
78461;SHT31;67755;51.986;5.696;2023-05-14T01:49:26;18.2;52.9
78461;SHT31;67755;51.986;5.696;2023-05-14T01:51:56;18.2;52.8
78461;SHT31;67755;51.986;5.696;2023-05-14T01:54:25;18.2;52.9
78461;SHT31;67755;51.986;5.696;2023-05-14T01:56:55;18.2;53.0
78461;SHT31;67755;51.986;5.696;2023-05-14T01:59:24;18.1;53.2
78461;SHT31;67755;51.986;5.696;2023-05-14T02:01:56;18.1;53.2
78461;SHT31;67755;51.986;5.696;2023-05-14T02:04:25;18.1;53.2
78461;SHT31;67755;51.986;5.696;2023-05-14T02:06:55;18.1;53.1
78461;SHT31;67755;51.986;5.696;2023-05-14T02:09:24;18.0;53.3
78461;SHT31;67755;51.986;5.696;2023-05-14T02:11:56;18.0;53.4
78461;SHT31;67755;51.986;5.696;2023-05-14T02:14:25;18.0;53.4
78461;SHT31;67755;51.986;5.696;2023-05-14T02:16:55;18.0;53.5
78461;SHT31;67755;51.986;5.696;2023-05-14T02:19:24;17.9;53.7
78461;SHT31;67755;51.986;5.696;2023-05-14T02:21:57;17.9;53.5
78461;SHT31;67755;51.986;5.696;2023-05-14T02:24:27;17.9;53.5
78461;SHT31;67755;51.986;5.696;2023-05-14T02:26:56;17.8;53.6
78461;SHT31;67755;51.986;5.696;2023-05-14T02:29:27;17.8;53.5
78461;SHT31;67755;51.986;5.696;2023-05-14T02:31:56;17.8;53.4
78461;SHT31;67755;51.986;5.696;2023-05-14T02:34:26;17.8;53.3
78461;SHT31;67755;51.986;5.696;2023-05-14T02:36:55;17.7;53.4
78461;SHT31;67755;51.986;5.696;2023-05-14T02:39:25;17.7;53.5
78461;SHT31;67755;51.986;5.696;2023-05-14T02:41:57;17.6;53.7
78461;SHT31;67755;51.986;5.696;2023-05-14T02:44:26;17.6;53.6
78461;SHT31;67755;51.986;5.696;2023-05-14T02:46:58;17.6;53.7
78461;SHT31;67755;51.986;5.696;2023-05-14T02:49:29;17.5;53.8
78461;SHT31;67755;51.986;5.696;2023-05-14T02:51:59;17.5;53.7
78461;SHT31;67755;51.986;5.696;2023-05-14T02:54:30;17.5;53.9
78461;SHT31;67755;51.986;5.696;2023-05-14T02:57:00;17.4;54.1
78461;SHT31;67755;51.986;5.696;2023-05-14T02:59:30;17.4;54.1
78461;SHT31;67755;51.986;5.696;2023-05-14T03:02:00;17.4;54.3
78461;SHT31;67755;51.986;5.696;2023-05-14T03:04:29;17.4;54.2
78461;SHT31;67755;51.986;5.696;2023-05-14T03:07:01;17.3;54.4
78461;SHT31;67755;51.986;5.696;2023-05-14T03:09:30;17.3;54.5
78461;SHT31;67755;51.986;5.696;2023-05-14T03:12:00;17.3;54.5
78461;SHT31;67755;51.986;5.696;2023-05-14T03:14:29;17.3;54.5
78461;SHT31;67755;51.986;5.696;2023-05-14T03:16:59;17.2;54.5
78461;SHT31;67755;51.986;5.696;2023-05-14T03:19:28;17.2;54.5
78461;SHT31;67755;51.986;5.696;2023-05-14T03:21:58;17.2;54.4
78461;SHT31;67755;51.986;5.696;2023-05-14T03:24:27;17.2;54.3
78461;SHT31;67755;51.986;5.696;2023-05-14T03:26:57;17.1;54.3
78461;SHT31;67755;51.986;5.696;2023-05-14T03:29:29;17.1;54.2
78461;SHT31;67755;51.986;5.696;2023-05-14T03:31:59;17.1;54.5
78461;SHT31;67755;51.986;5.696;2023-05-14T03:34:28;17.0;54.4
78461;SHT31;67755;51.986;5.696;2023-05-14T03:36:58;17.0;54.7
78461;SHT31;67755;51.986;5.696;2023-05-14T03:39:27;17.0;54.7
78461;SHT31;67755;51.986;5.696;2023-05-14T03:41:57;17.0;54.5
78461;SHT31;67755;51.986;5.696;2023-05-14T03:44:26;16.9;54.6
78461;SHT31;67755;51.986;5.696;2023-05-14T03:46:56;16.9;54.7
78461;SHT31;67755;51.986;5.696;2023-05-14T03:49:26;16.9;54.8
78461;SHT31;67755;51.986;5.696;2023-05-14T03:51:55;16.9;54.9
78461;SHT31;67755;51.986;5.696;2023-05-14T03:54:25;16.9;54.9
78461;SHT31;67755;51.986;5.696;2023-05-14T03:56:55;16.8;54.8
78461;SHT31;67755;51.986;5.696;2023-05-14T03:59:25;16.8;54.9
78461;SHT31;67755;51.986;5.696;2023-05-14T04:01:55;16.8;55.1
78461;SHT31;67755;51.986;5.696;2023-05-14T04:04:26;16.8;55.1
78461;SHT31;67755;51.986;5.696;2023-05-14T04:06:56;16.8;55.2
78461;SHT31;67755;51.986;5.696;2023-05-14T04:09:25;16.7;55.3
78461;SHT31;67755;51.986;5.696;2023-05-14T04:11:55;16.7;55.4
78461;SHT31;67755;51.986;5.696;2023-05-14T04:14:24;16.7;55.3
78461;SHT31;67755;51.986;5.696;2023-05-14T04:16:54;16.7;55.4
78461;SHT31;67755;51.986;5.696;2023-05-14T04:19:25;16.7;55.3
78461;SHT31;67755;51.986;5.696;2023-05-14T04:21:55;16.7;55.5
78461;SHT31;67755;51.986;5.696;2023-05-14T04:24:24;16.6;55.8
78461;SHT31;67755;51.986;5.696;2023-05-14T04:26:54;16.6;55.8
78461;SHT31;67755;51.986;5.696;2023-05-14T04:29:24;16.6;55.9
78461;SHT31;67755;51.986;5.696;2023-05-14T04:31:54;16.6;56.1
78461;SHT31;67755;51.986;5.696;2023-05-14T04:34:24;16.6;56.3
78461;SHT31;67755;51.986;5.696;2023-05-14T04:36:53;16.6;56.5
78461;SHT31;67755;51.986;5.696;2023-05-14T04:39:23;16.6;56.6
78461;SHT31;67755;51.986;5.696;2023-05-14T04:41:53;16.6;56.6
78461;SHT31;67755;51.986;5.696;2023-05-14T04:44:22;16.6;56.7
78461;SHT31;67755;51.986;5.696;2023-05-14T04:46:52;16.6;56.7
78461;SHT31;67755;51.986;5.696;2023-05-14T04:49:22;16.6;56.8
78461;SHT31;67755;51.986;5.696;2023-05-14T04:51:51;16.6;56.9
78461;SHT31;67755;51.986;5.696;2023-05-14T04:54:21;16.6;57.0
78461;SHT31;67755;51.986;5.696;2023-05-14T04:56:50;16.6;57.2
78461;SHT31;67755;51.986;5.696;2023-05-14T04:59:22;16.6;57.1
78461;SHT31;67755;51.986;5.696;2023-05-14T05:01:51;16.6;57.3
78461;SHT31;67755;51.986;5.696;2023-05-14T05:04:21;16.6;57.4
78461;SHT31;67755;51.986;5.696;2023-05-14T05:06:52;16.6;57.4
78461;SHT31;67755;51.986;5.696;2023-05-14T05:09:22;16.6;57.2
78461;SHT31;67755;51.986;5.696;2023-05-14T05:11:51;16.6;57.3
78461;SHT31;67755;51.986;5.696;2023-05-14T05:14:21;16.6;57.4
78461;SHT31;67755;51.986;5.696;2023-05-14T05:16:51;16.6;57.5
78461;SHT31;67755;51.986;5.696;2023-05-14T05:19:21;16.6;57.6
78461;SHT31;67755;51.986;5.696;2023-05-14T05:21:50;16.6;57.5
78461;SHT31;67755;51.986;5.696;2023-05-14T05:24:20;16.6;57.6
78461;SHT31;67755;51.986;5.696;2023-05-14T05:26:51;16.6;57.7
78461;SHT31;67755;51.986;5.696;2023-05-14T05:29:23;16.6;57.8
78461;SHT31;67755;51.986;5.696;2023-05-14T05:31:53;16.6;57.8
78461;SHT31;67755;51.986;5.696;2023-05-14T05:34:23;16.6;58.2
78461;SHT31;67755;51.986;5.696;2023-05-14T05:36:52;16.6;58.3
78461;SHT31;67755;51.986;5.696;2023-05-14T05:39:22;16.6;58.7
78461;SHT31;67755;51.986;5.696;2023-05-14T05:41:53;16.6;58.4
78461;SHT31;67755;51.986;5.696;2023-05-14T05:44:22;16.7;58.5
78461;SHT31;67755;51.986;5.696;2023-05-14T05:46:52;16.7;58.6
78461;SHT31;67755;51.986;5.696;2023-05-14T05:49:23;16.7;58.7
78461;SHT31;67755;51.986;5.696;2023-05-14T05:51:53;16.7;58.2
78461;SHT31;67755;51.986;5.696;2023-05-14T05:54:23;16.7;58.8
78461;SHT31;67755;51.986;5.696;2023-05-14T05:56:53;16.7;58.9
78461;SHT31;67755;51.986;5.696;2023-05-14T05:59:23;16.8;58.6
78461;SHT31;67755;51.986;5.696;2023-05-14T06:01:53;16.8;59.0
78461;SHT31;67755;51.986;5.696;2023-05-14T06:04:22;16.8;59.3
78461;SHT31;67755;51.986;5.696;2023-05-14T06:06:52;16.8;59.0
78461;SHT31;67755;51.986;5.696;2023-05-14T06:09:22;16.9;58.5
78461;SHT31;67755;51.986;5.696;2023-05-14T06:11:53;16.9;58.6
78461;SHT31;67755;51.986;5.696;2023-05-14T06:14:23;16.9;58.6
78461;SHT31;67755;51.986;5.696;2023-05-14T06:16:52;16.9;59.0
78461;SHT31;67755;51.986;5.696;2023-05-14T06:19:22;16.9;58.8
78461;SHT31;67755;51.986;5.696;2023-05-14T06:21:52;17.0;59.0
78461;SHT31;67755;51.986;5.696;2023-05-14T06:24:22;17.0;59.1
78461;SHT31;67755;51.986;5.696;2023-05-14T06:26:52;17.0;59.0
78461;SHT31;67755;51.986;5.696;2023-05-14T06:29:21;17.1;59.2
78461;SHT31;67755;51.986;5.696;2023-05-14T06:31:51;17.1;59.7
78461;SHT31;67755;51.986;5.696;2023-05-14T06:34:20;17.1;59.6
78461;SHT31;67755;51.986;5.696;2023-05-14T06:36:50;17.2;58.8
78461;SHT31;67755;51.986;5.696;2023-05-14T06:39:19;17.2;59.6
78461;SHT31;67755;51.986;5.696;2023-05-14T06:41:50;17.2;58.5
78461;SHT31;67755;51.986;5.696;2023-05-14T06:44:20;17.3;58.6
78461;SHT31;67755;51.986;5.696;2023-05-14T06:46:49;17.3;58.7
78461;SHT31;67755;51.986;5.696;2023-05-14T06:49:19;17.4;59.0
78461;SHT31;67755;51.986;5.696;2023-05-14T06:51:48;17.4;59.6
78461;SHT31;67755;51.986;5.696;2023-05-14T06:54:18;17.5;59.7
78461;SHT31;67755;51.986;5.696;2023-05-14T06:56:50;17.6;59.2
78461;SHT31;67755;51.986;5.696;2023-05-14T06:59:20;17.6;59.5
78461;SHT31;67755;51.986;5.696;2023-05-14T07:01:49;17.7;58.5
78461;SHT31;67755;51.986;5.696;2023-05-14T07:04:19;17.8;58.0
78461;SHT31;67755;51.986;5.696;2023-05-14T07:06:48;17.9;57.8
78461;SHT31;67755;51.986;5.696;2023-05-14T07:09:20;17.9;57.4
78461;SHT31;67755;51.986;5.696;2023-05-14T07:11:49;18.0;56.5
78461;SHT31;67755;51.986;5.696;2023-05-14T07:14:19;18.0;56.6
78461;SHT31;67755;51.986;5.696;2023-05-14T07:16:48;18.1;57.2
78461;SHT31;67755;51.986;5.696;2023-05-14T07:19:19;18.1;57.1
78461;SHT31;67755;51.986;5.696;2023-05-14T07:21:49;18.2;57.1
78461;SHT31;67755;51.986;5.696;2023-05-14T07:24:20;18.2;58.0
78461;SHT31;67755;51.986;5.696;2023-05-14T07:26:50;18.3;57.1
78461;SHT31;67755;51.986;5.696;2023-05-14T07:29:22;18.3;57.4
78461;SHT31;67755;51.986;5.696;2023-05-14T07:31:52;18.4;55.6
78461;SHT31;67755;51.986;5.696;2023-05-14T07:34:22;18.5;56.5
78461;SHT31;67755;51.986;5.696;2023-05-14T07:36:51;18.5;57.0
78461;SHT31;67755;51.986;5.696;2023-05-14T07:39:21;18.6;56.9
78461;SHT31;67755;51.986;5.696;2023-05-14T07:41:51;18.6;55.3
78461;SHT31;67755;51.986;5.696;2023-05-14T07:44:22;18.7;57.3
78461;SHT31;67755;51.986;5.696;2023-05-14T07:46:51;18.7;55.2
78461;SHT31;67755;51.986;5.696;2023-05-14T07:49:21;18.8;54.5
78461;SHT31;67755;51.986;5.696;2023-05-14T07:51:50;18.8;55.1
78461;SHT31;67755;51.986;5.696;2023-05-14T07:54:20;18.9;57.1
78461;SHT31;67755;51.986;5.696;2023-05-14T07:56:49;19.0;56.6
78461;SHT31;67755;51.986;5.696;2023-05-14T07:59:19;19.1;57.4
78461;SHT31;67755;51.986;5.696;2023-05-14T08:01:49;19.2;57.2
78461;SHT31;67755;51.986;5.696;2023-05-14T08:04:18;19.4;56.2
78461;SHT31;67755;51.986;5.696;2023-05-14T08:06:50;19.5;56.3
78461;SHT31;67755;51.986;5.696;2023-05-14T08:09:19;19.7;55.9
78461;SHT31;67755;51.986;5.696;2023-05-14T08:11:49;19.8;55.1
78461;SHT31;67755;51.986;5.696;2023-05-14T08:14:18;20.0;53.5
78461;SHT31;67755;51.986;5.696;2023-05-14T08:16:51;20.1;54.3
78461;SHT31;67755;51.986;5.696;2023-05-14T08:19:21;20.2;53.6
78461;SHT31;67755;51.986;5.696;2023-05-14T08:21:51;20.4;53.6
78461;SHT31;67755;51.986;5.696;2023-05-14T08:24:22;20.5;51.8
78461;SHT31;67755;51.986;5.696;2023-05-14T08:26:54;20.7;52.9
78461;SHT31;67755;51.986;5.696;2023-05-14T08:29:26;20.8;51.6
78461;SHT31;67755;51.986;5.696;2023-05-14T08:31:55;20.9;50.3
78461;SHT31;67755;51.986;5.696;2023-05-14T08:34:25;21.0;51.7
78461;SHT31;67755;51.986;5.696;2023-05-14T08:36:55;21.2;52.1
78461;SHT31;67755;51.986;5.696;2023-05-14T08:39:25;21.3;52.2
78461;SHT31;67755;51.986;5.696;2023-05-14T08:41:56;21.4;51.8
78461;SHT31;67755;51.986;5.696;2023-05-14T08:44:31;21.5;51.2
78461;SHT31;67755;51.986;5.696;2023-05-14T08:47:03;21.6;51.6
78461;SHT31;67755;51.986;5.696;2023-05-14T08:49:39;21.7;51.5
78461;SHT31;67755;51.986;5.696;2023-05-14T08:52:09;21.9;50.3
78461;SHT31;67755;51.986;5.696;2023-05-14T08:54:39;22.0;49.8
78461;SHT31;67755;51.986;5.696;2023-05-14T08:57:09;22.1;49.7
78461;SHT31;67755;51.986;5.696;2023-05-14T08:59:39;22.2;49.6
78461;SHT31;67755;51.986;5.696;2023-05-14T09:02:13;22.3;49.8
78461;SHT31;67755;51.986;5.696;2023-05-14T09:04:44;22.4;48.6
78461;SHT31;67755;51.986;5.696;2023-05-14T09:07:16;22.5;48.5
78461;SHT31;67755;51.986;5.696;2023-05-14T09:09:46;22.6;48.7
78461;SHT31;67755;51.986;5.696;2023-05-14T09:12:16;22.7;48.4
78461;SHT31;67755;51.986;5.696;2023-05-14T09:14:47;22.8;47.7
78461;SHT31;67755;51.986;5.696;2023-05-14T09:17:17;22.8;47.3
78461;SHT31;67755;51.986;5.696;2023-05-14T09:19:47;22.9;47.7
78461;SHT31;67755;51.986;5.696;2023-05-14T09:22:20;23.0;48.0
78461;SHT31;67755;51.986;5.696;2023-05-14T09:25:04;23.1;48.5
78461;SHT31;67755;51.986;5.696;2023-05-14T09:27:36;23.2;47.4
78461;SHT31;67755;51.986;5.696;2023-05-14T09:30:08;23.3;48.5
78461;SHT31;67755;51.986;5.696;2023-05-14T09:32:40;23.4;47.2
78461;SHT31;67755;51.986;5.696;2023-05-14T09:35:17;23.5;46.8
78461;SHT31;67755;51.986;5.696;2023-05-14T09:37:48;23.6;46.4
78461;SHT31;67755;51.986;5.696;2023-05-14T09:40:20;23.7;45.7
78461;SHT31;67755;51.986;5.696;2023-05-14T09:42:50;23.8;46.2
78461;SHT31;67755;51.986;5.696;2023-05-14T09:45:19;23.8;47.2
78461;SHT31;67755;51.986;5.696;2023-05-14T09:47:49;23.9;45.6
78461;SHT31;67755;51.986;5.696;2023-05-14T09:50:21;24.0;46.4
78461;SHT31;67755;51.986;5.696;2023-05-14T09:52:54;24.1;46.5
78461;SHT31;67755;51.986;5.696;2023-05-14T09:55:25;24.1;46.0
78461;SHT31;67755;51.986;5.696;2023-05-14T09:57:54;24.2;46.0
78461;SHT31;67755;51.986;5.696;2023-05-14T10:00:24;24.3;46.3
78461;SHT31;67755;51.986;5.696;2023-05-14T10:02:56;24.3;46.1
78461;SHT31;67755;51.986;5.696;2023-05-14T10:05:27;24.4;46.1
78461;SHT31;67755;51.986;5.696;2023-05-14T10:07:58;24.5;47.0
78461;SHT31;67755;51.986;5.696;2023-05-14T10:10:32;24.6;45.8
78461;SHT31;67755;51.986;5.696;2023-05-14T10:13:06;24.6;45.5
78461;SHT31;67755;51.986;5.696;2023-05-14T10:15:40;24.7;45.0
78461;SHT31;67755;51.986;5.696;2023-05-14T10:18:16;24.8;44.6
78461;SHT31;67755;51.986;5.696;2023-05-14T10:20:55;24.9;43.3
78461;SHT31;67755;51.986;5.696;2023-05-14T10:23:26;25.0;45.1
78461;SHT31;67755;51.986;5.696;2023-05-14T10:25:57;25.0;44.5
78461;SHT31;67755;51.986;5.696;2023-05-14T10:28:27;25.1;44.3
78461;SHT31;67755;51.986;5.696;2023-05-14T10:30:58;25.2;44.2
78461;SHT31;67755;51.986;5.696;2023-05-14T10:33:28;25.2;43.4
78461;SHT31;67755;51.986;5.696;2023-05-14T10:36:01;25.3;41.2
78461;SHT31;67755;51.986;5.696;2023-05-14T10:38:33;25.3;42.6
78461;SHT31;67755;51.986;5.696;2023-05-14T10:41:04;25.4;41.8
78461;SHT31;67755;51.986;5.696;2023-05-14T10:43:37;25.4;44.0
78461;SHT31;67755;51.986;5.696;2023-05-14T10:46:08;25.5;43.0
78461;SHT31;67755;51.986;5.696;2023-05-14T10:48:41;25.6;42.5
78461;SHT31;67755;51.986;5.696;2023-05-14T10:51:11;25.6;41.1
78461;SHT31;67755;51.986;5.696;2023-05-14T10:53:43;25.7;41.4
78461;SHT31;67755;51.986;5.696;2023-05-14T10:56:13;25.7;41.0
78461;SHT31;67755;51.986;5.696;2023-05-14T10:58:44;25.8;40.4
78461;SHT31;67755;51.986;5.696;2023-05-14T11:01:14;25.8;41.5
78461;SHT31;67755;51.986;5.696;2023-05-14T11:03:45;25.8;41.6
78461;SHT31;67755;51.986;5.696;2023-05-14T11:06:15;25.9;42.7
78461;SHT31;67755;51.986;5.696;2023-05-14T11:08:44;26.0;42.3
78461;SHT31;67755;51.986;5.696;2023-05-14T11:11:14;26.1;41.3
78461;SHT31;67755;51.986;5.696;2023-05-14T11:13:45;26.1;42.0
78461;SHT31;67755;51.986;5.696;2023-05-14T11:16:20;26.2;40.1
78461;SHT31;67755;51.986;5.696;2023-05-14T11:19:03;26.3;41.3
78461;SHT31;67755;51.986;5.696;2023-05-14T11:21:35;26.4;40.8
78461;SHT31;67755;51.986;5.696;2023-05-14T11:24:05;26.4;38.0
78461;SHT31;67755;51.986;5.696;2023-05-14T11:26:34;26.5;39.2
78461;SHT31;67755;51.986;5.696;2023-05-14T11:29:04;26.5;39.5
78461;SHT31;67755;51.986;5.696;2023-05-14T11:31:34;26.5;39.5
78461;SHT31;67755;51.986;5.696;2023-05-14T11:34:05;26.5;37.4
78461;SHT31;67755;51.986;5.696;2023-05-14T11:36:37;26.5;39.8
78461;SHT31;67755;51.986;5.696;2023-05-14T11:39:06;26.5;40.0
78461;SHT31;67755;51.986;5.696;2023-05-14T11:41:44;26.5;38.6
78461;SHT31;67755;51.986;5.696;2023-05-14T11:44:14;26.5;38.8
78461;SHT31;67755;51.986;5.696;2023-05-14T11:46:54;26.4;39.9
78461;SHT31;67755;51.986;5.696;2023-05-14T11:49:25;26.4;38.4
78461;SHT31;67755;51.986;5.696;2023-05-14T11:51:58;26.3;37.9
78461;SHT31;67755;51.986;5.696;2023-05-14T11:54:28;26.3;39.9
78461;SHT31;67755;51.986;5.696;2023-05-14T11:57:00;26.2;40.0
78461;SHT31;67755;51.986;5.696;2023-05-14T11:59:31;26.2;39.6
78461;SHT31;67755;51.986;5.696;2023-05-14T12:02:01;26.2;36.7
78461;SHT31;67755;51.986;5.696;2023-05-14T12:04:31;26.2;38.0
78461;SHT31;67755;51.986;5.696;2023-05-14T12:07:09;26.2;38.0
78461;SHT31;67755;51.986;5.696;2023-05-14T12:09:41;26.1;36.7
78461;SHT31;67755;51.986;5.696;2023-05-14T12:12:17;26.1;39.8
78461;SHT31;67755;51.986;5.696;2023-05-14T12:14:48;26.1;39.0
78461;SHT31;67755;51.986;5.696;2023-05-14T12:17:21;26.0;38.6
78461;SHT31;67755;51.986;5.696;2023-05-14T12:19:51;26.0;38.2
78461;SHT31;67755;51.986;5.696;2023-05-14T12:22:22;26.0;39.3
78461;SHT31;67755;51.986;5.696;2023-05-14T12:24:56;26.0;36.7
78461;SHT31;67755;51.986;5.696;2023-05-14T12:27:28;26.0;39.0
78461;SHT31;67755;51.986;5.696;2023-05-14T12:30:02;26.1;39.4
78461;SHT31;67755;51.986;5.696;2023-05-14T12:32:33;26.1;37.7
78461;SHT31;67755;51.986;5.696;2023-05-14T12:35:03;26.1;36.8
78461;SHT31;67755;51.986;5.696;2023-05-14T12:37:33;26.1;37.2
78461;SHT31;67755;51.986;5.696;2023-05-14T12:40:04;26.1;35.7
78461;SHT31;67755;51.986;5.696;2023-05-14T12:42:35;26.1;35.1
78461;SHT31;67755;51.986;5.696;2023-05-14T12:45:05;26.1;36.6
78461;SHT31;67755;51.986;5.696;2023-05-14T12:47:35;26.1;36.3
78461;SHT31;67755;51.986;5.696;2023-05-14T12:50:08;26.1;36.3
78461;SHT31;67755;51.986;5.696;2023-05-14T12:52:40;26.0;37.7
78461;SHT31;67755;51.986;5.696;2023-05-14T12:55:10;26.0;39.0
78461;SHT31;67755;51.986;5.696;2023-05-14T12:57:41;26.0;37.0
78461;SHT31;67755;51.986;5.696;2023-05-14T13:00:12;25.9;39.7
78461;SHT31;67755;51.986;5.696;2023-05-14T13:02:41;25.9;38.5
78461;SHT31;67755;51.986;5.696;2023-05-14T13:05:11;25.8;39.4
78461;SHT31;67755;51.986;5.696;2023-05-14T13:07:41;25.8;38.2
78461;SHT31;67755;51.986;5.696;2023-05-14T13:10:11;25.7;40.3
78461;SHT31;67755;51.986;5.696;2023-05-14T13:12:40;25.7;39.0
78461;SHT31;67755;51.986;5.696;2023-05-14T13:15:11;25.7;39.1
78461;SHT31;67755;51.986;5.696;2023-05-14T13:17:40;25.6;39.0
78461;SHT31;67755;51.986;5.696;2023-05-14T13:20:10;25.6;38.1
78461;SHT31;67755;51.986;5.696;2023-05-14T13:22:40;25.6;37.9
78461;SHT31;67755;51.986;5.696;2023-05-14T13:25:12;25.5;37.7
78461;SHT31;67755;51.986;5.696;2023-05-14T13:27:41;25.5;41.0
78461;SHT31;67755;51.986;5.696;2023-05-14T13:30:14;25.5;38.6
78461;SHT31;67755;51.986;5.696;2023-05-14T13:32:44;25.5;39.9
78461;SHT31;67755;51.986;5.696;2023-05-14T13:35:15;25.5;40.6
78461;SHT31;67755;51.986;5.696;2023-05-14T13:37:48;25.5;40.7
78461;SHT31;67755;51.986;5.696;2023-05-14T13:40:17;25.5;40.1
78461;SHT31;67755;51.986;5.696;2023-05-14T13:42:47;25.6;38.6
78461;SHT31;67755;51.986;5.696;2023-05-14T13:45:19;25.6;40.5
78461;SHT31;67755;51.986;5.696;2023-05-14T13:47:49;25.6;38.2
78461;SHT31;67755;51.986;5.696;2023-05-14T13:50:18;25.6;38.7
78461;SHT31;67755;51.986;5.696;2023-05-14T13:52:48;25.6;39.7
78461;SHT31;67755;51.986;5.696;2023-05-14T13:55:18;25.6;41.1
78461;SHT31;67755;51.986;5.696;2023-05-14T13:57:50;25.6;37.9
78461;SHT31;67755;51.986;5.696;2023-05-14T14:00:19;25.6;40.1
78461;SHT31;67755;51.986;5.696;2023-05-14T14:02:49;25.7;39.4
78461;SHT31;67755;51.986;5.696;2023-05-14T14:05:19;25.7;39.8
78461;SHT31;67755;51.986;5.696;2023-05-14T14:07:50;25.7;40.3
78461;SHT31;67755;51.986;5.696;2023-05-14T14:10:19;25.7;40.3
78461;SHT31;67755;51.986;5.696;2023-05-14T14:12:49;25.7;40.0
78461;SHT31;67755;51.986;5.696;2023-05-14T14:15:21;25.7;38.9
78461;SHT31;67755;51.986;5.696;2023-05-14T14:17:51;25.8;40.3
78461;SHT31;67755;51.986;5.696;2023-05-14T14:20:22;25.8;39.5
78461;SHT31;67755;51.986;5.696;2023-05-14T14:22:53;25.8;39.5
78461;SHT31;67755;51.986;5.696;2023-05-14T14:25:22;25.8;40.8
78461;SHT31;67755;51.986;5.696;2023-05-14T14:27:52;25.8;39.8
78461;SHT31;67755;51.986;5.696;2023-05-14T14:30:22;25.8;39.9
78461;SHT31;67755;51.986;5.696;2023-05-14T14:32:51;25.8;39.5
78461;SHT31;67755;51.986;5.696;2023-05-14T14:35:21;25.7;39.8
78461;SHT31;67755;51.986;5.696;2023-05-14T14:37:53;25.7;40.0
78461;SHT31;67755;51.986;5.696;2023-05-14T14:40:22;25.7;40.0
78461;SHT31;67755;51.986;5.696;2023-05-14T14:42:52;25.7;40.7
78461;SHT31;67755;51.986;5.696;2023-05-14T14:45:22;25.6;39.3
78461;SHT31;67755;51.986;5.696;2023-05-14T14:50:44;25.5;41.0
78461;SHT31;67755;51.986;5.696;2023-05-14T14:53:14;25.5;39.3
78461;SHT31;67755;51.986;5.696;2023-05-14T14:55:43;25.5;39.5
78461;SHT31;67755;51.986;5.696;2023-05-14T14:58:13;25.4;40.0
78461;SHT31;67755;51.986;5.696;2023-05-14T15:00:43;25.4;39.5
78461;SHT31;67755;51.986;5.696;2023-05-14T15:03:13;25.4;41.3
78461;SHT31;67755;51.986;5.696;2023-05-14T15:05:43;25.3;40.2
78461;SHT31;67755;51.986;5.696;2023-05-14T15:08:14;25.3;40.4
78461;SHT31;67755;51.986;5.696;2023-05-14T15:10:44;25.3;40.5
78461;SHT31;67755;51.986;5.696;2023-05-14T15:13:13;25.3;39.9
78461;SHT31;67755;51.986;5.696;2023-05-14T15:15:44;25.2;40.6
78461;SHT31;67755;51.986;5.696;2023-05-14T15:18:15;25.2;41.0
78461;SHT31;67755;51.986;5.696;2023-05-14T15:20:45;25.1;40.1
78461;SHT31;67755;51.986;5.696;2023-05-14T15:23:15;25.1;40.2
78461;SHT31;67755;51.986;5.696;2023-05-14T15:25:44;25.1;40.4
78461;SHT31;67755;51.986;5.696;2023-05-14T15:28:15;25.0;41.5
78461;SHT31;67755;51.986;5.696;2023-05-14T15:30:46;25.0;41.5
78461;SHT31;67755;51.986;5.696;2023-05-14T15:33:18;25.0;41.3
78461;SHT31;67755;51.986;5.696;2023-05-14T15:35:48;24.9;41.1
78461;SHT31;67755;51.986;5.696;2023-05-14T15:38:17;24.9;42.5
78461;SHT31;67755;51.986;5.696;2023-05-14T15:40:49;24.9;43.2
78461;SHT31;67755;51.986;5.696;2023-05-14T15:43:19;24.9;43.2
78461;SHT31;67755;51.986;5.696;2023-05-14T15:45:48;24.8;43.0
78461;SHT31;67755;51.986;5.696;2023-05-14T15:48:18;24.8;43.8
78461;SHT31;67755;51.986;5.696;2023-05-14T15:50:48;24.8;45.0
78461;SHT31;67755;51.986;5.696;2023-05-14T15:53:18;24.8;44.4
78461;SHT31;67755;51.986;5.696;2023-05-14T15:55:50;24.8;44.3
78461;SHT31;67755;51.986;5.696;2023-05-14T15:58:23;24.7;43.7
78461;SHT31;67755;51.986;5.696;2023-05-14T16:00:55;24.7;45.2
78461;SHT31;67755;51.986;5.696;2023-05-14T16:03:24;24.7;44.3
78461;SHT31;67755;51.986;5.696;2023-05-14T16:05:54;24.6;45.0
78461;SHT31;67755;51.986;5.696;2023-05-14T16:08:23;24.6;45.4
78461;SHT31;67755;51.986;5.696;2023-05-14T16:10:53;24.6;45.3
78461;SHT31;67755;51.986;5.696;2023-05-14T16:13:24;24.6;45.5
78461;SHT31;67755;51.986;5.696;2023-05-14T16:15:53;24.5;44.9
78461;SHT31;67755;51.986;5.696;2023-05-14T16:18:23;24.5;45.2
78461;SHT31;67755;51.986;5.696;2023-05-14T16:20:53;24.5;44.0
78461;SHT31;67755;51.986;5.696;2023-05-14T16:23:23;24.4;44.7
78461;SHT31;67755;51.986;5.696;2023-05-14T16:25:53;24.4;44.0